sensor_id;sensor_type;location;lat;lon;timestamp;P1;durP1;ratioP1;P2;durP2;ratioP2
18364;SDS011;9309;52.126;11.616;2023-05-07T00:01:12;6.50;;;4.70;;
18364;SDS011;9309;52.126;11.616;2023-05-07T00:03:39;4.63;;;4.23;;
18364;SDS011;9309;52.126;11.616;2023-05-07T00:06:06;4.57;;;4.17;;
18364;SDS011;9309;52.126;11.616;2023-05-07T00:08:33;5.07;;;4.17;;
18364;SDS011;9309;52.126;11.616;2023-05-07T00:11:00;4.57;;;4.00;;
18364;SDS011;9309;52.126;11.616;2023-05-07T00:13:28;4.10;;;3.90;;
18364;SDS011;9309;52.126;11.616;2023-05-07T00:15:55;4.70;;;4.30;;
18364;SDS011;9309;52.126;11.616;2023-05-07T00:18:22;4.93;;;4.03;;
18364;SDS011;9309;52.126;11.616;2023-05-07T00:20:49;5.83;;;4.40;;
18364;SDS011;9309;52.126;11.616;2023-05-07T00:23:15;4.03;;;3.70;;
18364;SDS011;9309;52.126;11.616;2023-05-07T00:25:42;4.23;;;3.80;;
18364;SDS011;9309;52.126;11.616;2023-05-07T00:28:08;4.07;;;3.77;;
18364;SDS011;9309;52.126;11.616;2023-05-07T00:30:36;4.63;;;3.87;;
18364;SDS011;9309;52.126;11.616;2023-05-07T00:33:03;4.40;;;3.77;;
18364;SDS011;9309;52.126;11.616;2023-05-07T00:35:30;7.57;;;4.43;;
18364;SDS011;9309;52.126;11.616;2023-05-07T00:37:57;3.97;;;3.77;;
18364;SDS011;9309;52.126;11.616;2023-05-07T00:40:23;4.53;;;3.73;;
18364;SDS011;9309;52.126;11.616;2023-05-07T00:42:50;5.37;;;3.80;;
18364;SDS011;9309;52.126;11.616;2023-05-07T00:45:23;4.43;;;3.97;;
18364;SDS011;9309;52.126;11.616;2023-05-07T00:47:54;4.23;;;3.90;;
18364;SDS011;9309;52.126;11.616;2023-05-07T00:50:22;4.23;;;3.93;;
18364;SDS011;9309;52.126;11.616;2023-05-07T00:52:49;4.30;;;3.90;;
18364;SDS011;9309;52.126;11.616;2023-05-07T00:55:16;2.53;;;2.43;;
18364;SDS011;9309;52.126;11.616;2023-05-07T00:57:44;4.07;;;3.73;;
18364;SDS011;9309;52.126;11.616;2023-05-07T01:00:11;3.80;;;3.60;;
18364;SDS011;9309;52.126;11.616;2023-05-07T01:02:38;4.33;;;3.90;;
18364;SDS011;9309;52.126;11.616;2023-05-07T01:05:08;4.93;;;3.90;;
18364;SDS011;9309;52.126;11.616;2023-05-07T01:07:36;4.27;;;3.87;;
18364;SDS011;9309;52.126;11.616;2023-05-07T01:10:04;5.00;;;3.67;;
18364;SDS011;9309;52.126;11.616;2023-05-07T01:12:32;3.63;;;3.33;;
18364;SDS011;9309;52.126;11.616;2023-05-07T01:15:00;4.47;;;4.07;;
18364;SDS011;9309;52.126;11.616;2023-05-07T01:17:27;3.73;;;3.43;;
18364;SDS011;9309;52.126;11.616;2023-05-07T01:19:55;3.37;;;3.07;;
18364;SDS011;9309;52.126;11.616;2023-05-07T01:22:29;3.80;;;3.60;;
18364;SDS011;9309;52.126;11.616;2023-05-07T01:24:57;4.20;;;3.90;;
18364;SDS011;9309;52.126;11.616;2023-05-07T01:27:27;4.63;;;3.80;;
18364;SDS011;9309;52.126;11.616;2023-05-07T01:29:54;4.03;;;3.67;;
18364;SDS011;9309;52.126;11.616;2023-05-07T01:32:25;3.10;;;2.90;;
18364;SDS011;9309;52.126;11.616;2023-05-07T01:34:57;3.93;;;3.53;;
18364;SDS011;9309;52.126;11.616;2023-05-07T01:37:26;3.77;;;3.53;;
18364;SDS011;9309;52.126;11.616;2023-05-07T01:39:54;3.70;;;3.40;;
18364;SDS011;9309;52.126;11.616;2023-05-07T01:42:22;3.27;;;3.17;;
18364;SDS011;9309;52.126;11.616;2023-05-07T01:44:48;5.30;;;4.03;;
18364;SDS011;9309;52.126;11.616;2023-05-07T01:47:15;4.43;;;4.00;;
18364;SDS011;9309;52.126;11.616;2023-05-07T01:49:43;3.87;;;3.57;;
18364;SDS011;9309;52.126;11.616;2023-05-07T01:52:10;5.20;;;3.93;;
18364;SDS011;9309;52.126;11.616;2023-05-07T01:54:37;4.70;;;3.63;;
18364;SDS011;9309;52.126;11.616;2023-05-07T01:57:05;4.63;;;3.30;;
18364;SDS011;9309;52.126;11.616;2023-05-07T01:59:32;3.90;;;3.63;;
18364;SDS011;9309;52.126;11.616;2023-05-07T02:01:59;3.47;;;3.17;;
18364;SDS011;9309;52.126;11.616;2023-05-07T02:04:26;4.30;;;3.70;;
18364;SDS011;9309;52.126;11.616;2023-05-07T02:06:53;3.50;;;3.30;;
18364;SDS011;9309;52.126;11.616;2023-05-07T02:09:20;3.63;;;3.37;;
18364;SDS011;9309;52.126;11.616;2023-05-07T02:11:48;4.67;;;4.13;;
18364;SDS011;9309;52.126;11.616;2023-05-07T02:14:18;3.70;;;3.50;;
18364;SDS011;9309;52.126;11.616;2023-05-07T02:16:45;4.23;;;3.83;;
18364;SDS011;9309;52.126;11.616;2023-05-07T02:19:14;6.80;;;4.40;;
18364;SDS011;9309;52.126;11.616;2023-05-07T02:21:41;4.03;;;3.57;;
18364;SDS011;9309;52.126;11.616;2023-05-07T02:24:08;4.77;;;3.83;;
18364;SDS011;9309;52.126;11.616;2023-05-07T02:26:35;3.57;;;3.37;;
18364;SDS011;9309;52.126;11.616;2023-05-07T02:29:01;4.80;;;4.30;;
18364;SDS011;9309;52.126;11.616;2023-05-07T02:31:30;4.87;;;4.03;;
18364;SDS011;9309;52.126;11.616;2023-05-07T02:33:59;3.77;;;3.43;;
18364;SDS011;9309;52.126;11.616;2023-05-07T02:36:26;3.63;;;3.33;;
18364;SDS011;9309;52.126;11.616;2023-05-07T02:38:59;3.37;;;3.10;;
18364;SDS011;9309;52.126;11.616;2023-05-07T02:41:27;3.67;;;3.43;;
18364;SDS011;9309;52.126;11.616;2023-05-07T02:43:54;4.20;;;3.80;;
18364;SDS011;9309;52.126;11.616;2023-05-07T02:46:21;3.50;;;3.30;;
18364;SDS011;9309;52.126;11.616;2023-05-07T02:48:57;4.77;;;3.23;;
18364;SDS011;9309;52.126;11.616;2023-05-07T02:51:23;3.37;;;3.13;;
18364;SDS011;9309;52.126;11.616;2023-05-07T02:53:53;3.63;;;3.37;;
18364;SDS011;9309;52.126;11.616;2023-05-07T02:56:21;5.43;;;3.67;;
18364;SDS011;9309;52.126;11.616;2023-05-07T02:58:47;5.53;;;4.23;;
18364;SDS011;9309;52.126;11.616;2023-05-07T03:01:16;4.77;;;4.47;;
18364;SDS011;9309;52.126;11.616;2023-05-07T03:03:57;6.63;;;3.57;;
18364;SDS011;9309;52.126;11.616;2023-05-07T03:06:24;4.17;;;3.90;;
18364;SDS011;9309;52.126;11.616;2023-05-07T03:08:51;5.23;;;4.40;;
18364;SDS011;9309;52.126;11.616;2023-05-07T03:11:18;5.50;;;3.83;;
18364;SDS011;9309;52.126;11.616;2023-05-07T03:13:44;3.43;;;3.00;;
18364;SDS011;9309;52.126;11.616;2023-05-07T03:16:12;3.73;;;3.53;;
18364;SDS011;9309;52.126;11.616;2023-05-07T03:18:39;4.73;;;3.87;;
18364;SDS011;9309;52.126;11.616;2023-05-07T03:21:07;3.47;;;3.27;;
18364;SDS011;9309;52.126;11.616;2023-05-07T03:23:34;4.30;;;3.33;;
18364;SDS011;9309;52.126;11.616;2023-05-07T03:26:01;3.83;;;3.33;;
18364;SDS011;9309;52.126;11.616;2023-05-07T03:28:28;3.77;;;3.57;;
18364;SDS011;9309;52.126;11.616;2023-05-07T03:30:58;3.73;;;3.43;;
18364;SDS011;9309;52.126;11.616;2023-05-07T03:33:28;4.50;;;4.00;;
18364;SDS011;9309;52.126;11.616;2023-05-07T03:35:55;3.20;;;2.90;;
18364;SDS011;9309;52.126;11.616;2023-05-07T03:38:25;5.00;;;3.67;;
18364;SDS011;9309;52.126;11.616;2023-05-07T03:40:56;3.37;;;3.17;;
18364;SDS011;9309;52.126;11.616;2023-05-07T03:43:22;3.17;;;2.90;;
18364;SDS011;9309;52.126;11.616;2023-05-07T03:45:57;3.77;;;3.40;;
18364;SDS011;9309;52.126;11.616;2023-05-07T03:48:26;4.50;;;4.10;;
18364;SDS011;9309;52.126;11.616;2023-05-07T03:50:55;3.83;;;3.50;;
18364;SDS011;9309;52.126;11.616;2023-05-07T03:53:27;4.97;;;3.83;;
18364;SDS011;9309;52.126;11.616;2023-05-07T03:55:54;4.33;;;3.83;;
18364;SDS011;9309;52.126;11.616;2023-05-07T03:58:21;3.57;;;3.37;;
18364;SDS011;9309;52.126;11.616;2023-05-07T04:00:49;3.90;;;3.63;;
18364;SDS011;9309;52.126;11.616;2023-05-07T04:03:26;3.47;;;3.37;;
18364;SDS011;9309;52.126;11.616;2023-05-07T04:05:55;3.53;;;3.33;;
18364;SDS011;9309;52.126;11.616;2023-05-07T04:08:22;4.03;;;3.73;;
18364;SDS011;9309;52.126;11.616;2023-05-07T04:10:55;4.10;;;3.80;;
18364;SDS011;9309;52.126;11.616;2023-05-07T04:13:24;4.93;;;3.77;;
18364;SDS011;9309;52.126;11.616;2023-05-07T04:15:51;4.43;;;4.03;;
18364;SDS011;9309;52.126;11.616;2023-05-07T04:18:19;5.27;;;3.67;;
18364;SDS011;9309;52.126;11.616;2023-05-07T04:20:47;3.50;;;3.27;;
18364;SDS011;9309;52.126;11.616;2023-05-07T04:23:14;5.03;;;4.20;;
18364;SDS011;9309;52.126;11.616;2023-05-07T04:25:41;9.77;;;5.20;;
18364;SDS011;9309;52.126;11.616;2023-05-07T04:28:30;4.10;;;3.80;;
18364;SDS011;9309;52.126;11.616;2023-05-07T04:30:57;4.97;;;4.60;;
18364;SDS011;9309;52.126;11.616;2023-05-07T04:33:24;4.30;;;3.53;;
18364;SDS011;9309;52.126;11.616;2023-05-07T04:35:51;3.00;;;2.90;;
18364;SDS011;9309;52.126;11.616;2023-05-07T04:38:18;7.30;;;4.00;;
18364;SDS011;9309;52.126;11.616;2023-05-07T04:40:48;3.47;;;3.17;;
18364;SDS011;9309;52.126;11.616;2023-05-07T04:43:19;5.03;;;3.90;;
18364;SDS011;9309;52.126;11.616;2023-05-07T04:45:51;4.17;;;3.80;;
18364;SDS011;9309;52.126;11.616;2023-05-07T04:48:22;4.50;;;4.10;;
18364;SDS011;9309;52.126;11.616;2023-05-07T04:50:51;5.73;;;3.23;;
18364;SDS011;9309;52.126;11.616;2023-05-07T04:53:19;7.63;;;4.20;;
18364;SDS011;9309;52.126;11.616;2023-05-07T04:55:47;3.70;;;3.30;;
18364;SDS011;9309;52.126;11.616;2023-05-07T04:58:14;4.47;;;3.83;;
18364;SDS011;9309;52.126;11.616;2023-05-07T05:00:43;4.37;;;4.03;;
18364;SDS011;9309;52.126;11.616;2023-05-07T05:03:11;4.93;;;4.50;;
18364;SDS011;9309;52.126;11.616;2023-05-07T05:05:38;3.70;;;3.50;;
18364;SDS011;9309;52.126;11.616;2023-05-07T05:08:06;4.23;;;3.93;;
18364;SDS011;9309;52.126;11.616;2023-05-07T05:10:36;3.60;;;3.30;;
18364;SDS011;9309;52.126;11.616;2023-05-07T05:13:02;2.80;;;2.23;;
18364;SDS011;9309;52.126;11.616;2023-05-07T05:15:30;3.40;;;3.17;;
18364;SDS011;9309;52.126;11.616;2023-05-07T05:17:57;3.63;;;3.33;;
18364;SDS011;9309;52.126;11.616;2023-05-07T05:20:25;2.43;;;2.33;;
18364;SDS011;9309;52.126;11.616;2023-05-07T05:22:52;2.90;;;2.80;;
18364;SDS011;9309;52.126;11.616;2023-05-07T05:25:18;3.37;;;3.10;;
18364;SDS011;9309;52.126;11.616;2023-05-07T05:27:45;3.00;;;2.80;;
18364;SDS011;9309;52.126;11.616;2023-05-07T05:30:12;2.57;;;2.47;;
18364;SDS011;9309;52.126;11.616;2023-05-07T05:32:43;2.80;;;2.70;;
18364;SDS011;9309;52.126;11.616;2023-05-07T05:35:09;3.10;;;2.90;;
18364;SDS011;9309;52.126;11.616;2023-05-07T05:37:38;2.47;;;2.37;;
18364;SDS011;9309;52.126;11.616;2023-05-07T05:40:06;5.80;;;3.67;;
18364;SDS011;9309;52.126;11.616;2023-05-07T05:42:34;2.10;;;2.00;;
18364;SDS011;9309;52.126;11.616;2023-05-07T05:45:01;3.47;;;3.17;;
18364;SDS011;9309;52.126;11.616;2023-05-07T05:47:30;3.33;;;3.13;;
18364;SDS011;9309;52.126;11.616;2023-05-07T05:49:57;3.00;;;2.70;;
18364;SDS011;9309;52.126;11.616;2023-05-07T05:52:24;2.97;;;2.63;;
18364;SDS011;9309;52.126;11.616;2023-05-07T05:54:54;3.53;;;3.00;;
18364;SDS011;9309;52.126;11.616;2023-05-07T05:57:20;2.50;;;2.40;;
18364;SDS011;9309;52.126;11.616;2023-05-07T05:59:47;2.77;;;2.63;;
18364;SDS011;9309;52.126;11.616;2023-05-07T06:02:14;2.40;;;2.27;;
18364;SDS011;9309;52.126;11.616;2023-05-07T06:04:41;3.00;;;2.90;;
18364;SDS011;9309;52.126;11.616;2023-05-07T06:07:10;3.27;;;2.90;;
18364;SDS011;9309;52.126;11.616;2023-05-07T06:09:37;2.37;;;2.27;;
18364;SDS011;9309;52.126;11.616;2023-05-07T06:12:05;3.47;;;2.73;;
18364;SDS011;9309;52.126;11.616;2023-05-07T06:14:32;4.20;;;3.70;;
18364;SDS011;9309;52.126;11.616;2023-05-07T06:16:59;3.33;;;2.60;;
18364;SDS011;9309;52.126;11.616;2023-05-07T06:19:26;4.50;;;3.20;;
18364;SDS011;9309;52.126;11.616;2023-05-07T06:21:55;3.87;;;3.57;;
18364;SDS011;9309;52.126;11.616;2023-05-07T06:24:24;4.40;;;3.50;;
18364;SDS011;9309;52.126;11.616;2023-05-07T06:26:51;2.17;;;2.13;;
18364;SDS011;9309;52.126;11.616;2023-05-07T06:29:19;2.60;;;2.50;;
18364;SDS011;9309;52.126;11.616;2023-05-07T06:31:45;3.00;;;2.77;;
18364;SDS011;9309;52.126;11.616;2023-05-07T06:34:13;3.07;;;2.73;;
18364;SDS011;9309;52.126;11.616;2023-05-07T06:36:40;3.13;;;2.83;;
18364;SDS011;9309;52.126;11.616;2023-05-07T06:39:26;3.43;;;3.20;;
18364;SDS011;9309;52.126;11.616;2023-05-07T06:41:53;3.37;;;3.17;;
18364;SDS011;9309;52.126;11.616;2023-05-07T06:44:26;5.47;;;2.40;;
18364;SDS011;9309;52.126;11.616;2023-05-07T06:47:06;3.00;;;2.80;;
18364;SDS011;9309;52.126;11.616;2023-05-07T06:49:34;2.77;;;2.67;;
18364;SDS011;9309;52.126;11.616;2023-05-07T06:52:01;2.60;;;2.50;;
18364;SDS011;9309;52.126;11.616;2023-05-07T06:54:28;3.43;;;3.30;;
18364;SDS011;9309;52.126;11.616;2023-05-07T06:56:55;2.77;;;2.67;;
18364;SDS011;9309;52.126;11.616;2023-05-07T06:59:24;3.73;;;3.20;;
18364;SDS011;9309;52.126;11.616;2023-05-07T07:01:53;3.43;;;3.33;;
18364;SDS011;9309;52.126;11.616;2023-05-07T07:04:20;3.70;;;3.20;;
18364;SDS011;9309;52.126;11.616;2023-05-07T07:06:53;4.73;;;2.77;;
18364;SDS011;9309;52.126;11.616;2023-05-07T07:09:21;3.27;;;3.07;;
18364;SDS011;9309;52.126;11.616;2023-05-07T07:11:48;3.20;;;3.10;;
18364;SDS011;9309;52.126;11.616;2023-05-07T07:14:15;3.80;;;3.40;;
18364;SDS011;9309;52.126;11.616;2023-05-07T07:16:47;4.87;;;3.80;;
18364;SDS011;9309;52.126;11.616;2023-05-07T07:19:17;4.30;;;4.00;;
18364;SDS011;9309;52.126;11.616;2023-05-07T07:21:46;3.23;;;3.03;;
18364;SDS011;9309;52.126;11.616;2023-05-07T07:24:13;2.97;;;2.77;;
18364;SDS011;9309;52.126;11.616;2023-05-07T07:26:44;5.37;;;3.57;;
18364;SDS011;9309;52.126;11.616;2023-05-07T07:29:12;2.83;;;2.63;;
18364;SDS011;9309;52.126;11.616;2023-05-07T07:31:41;3.07;;;2.87;;
18364;SDS011;9309;52.126;11.616;2023-05-07T07:34:08;3.00;;;2.80;;
18364;SDS011;9309;52.126;11.616;2023-05-07T07:36:36;3.10;;;2.63;;
18364;SDS011;9309;52.126;11.616;2023-05-07T07:39:03;3.70;;;3.10;;
18364;SDS011;9309;52.126;11.616;2023-05-07T07:41:30;3.77;;;3.57;;
18364;SDS011;9309;52.126;11.616;2023-05-07T07:43:57;3.40;;;3.10;;
18364;SDS011;9309;52.126;11.616;2023-05-07T07:46:24;4.57;;;2.70;;
18364;SDS011;9309;52.126;11.616;2023-05-07T07:48:52;4.07;;;3.77;;
18364;SDS011;9309;52.126;11.616;2023-05-07T07:51:19;3.43;;;3.10;;
18364;SDS011;9309;52.126;11.616;2023-05-07T07:53:47;2.90;;;2.70;;
18364;SDS011;9309;52.126;11.616;2023-05-07T07:56:14;3.27;;;3.03;;
18364;SDS011;9309;52.126;11.616;2023-05-07T07:58:41;3.23;;;3.00;;
18364;SDS011;9309;52.126;11.616;2023-05-07T08:01:08;3.43;;;3.33;;
18364;SDS011;9309;52.126;11.616;2023-05-07T08:03:37;3.03;;;2.83;;
18364;SDS011;9309;52.126;11.616;2023-05-07T08:06:05;3.03;;;2.73;;
18364;SDS011;9309;52.126;11.616;2023-05-07T08:08:34;4.83;;;3.90;;
18364;SDS011;9309;52.126;11.616;2023-05-07T08:11:02;3.73;;;3.53;;
18364;SDS011;9309;52.126;11.616;2023-05-07T08:13:31;4.20;;;3.80;;
18364;SDS011;9309;52.126;11.616;2023-05-07T08:15:59;3.37;;;3.10;;
18364;SDS011;9309;52.126;11.616;2023-05-07T08:18:26;2.97;;;2.77;;
18364;SDS011;9309;52.126;11.616;2023-05-07T08:20:54;5.50;;;2.93;;
18364;SDS011;9309;52.126;11.616;2023-05-07T08:23:24;3.57;;;3.27;;
18364;SDS011;9309;52.126;11.616;2023-05-07T08:25:52;4.93;;;3.13;;
18364;SDS011;9309;52.126;11.616;2023-05-07T08:28:20;4.03;;;3.27;;
18364;SDS011;9309;52.126;11.616;2023-05-07T08:30:50;2.47;;;2.33;;
18364;SDS011;9309;52.126;11.616;2023-05-07T08:33:17;2.73;;;2.63;;
18364;SDS011;9309;52.126;11.616;2023-05-07T08:35:43;2.50;;;2.40;;
18364;SDS011;9309;52.126;11.616;2023-05-07T08:38:12;3.60;;;3.33;;
18364;SDS011;9309;52.126;11.616;2023-05-07T08:40:39;4.07;;;3.73;;
18364;SDS011;9309;52.126;11.616;2023-05-07T08:43:12;3.63;;;3.43;;
18364;SDS011;9309;52.126;11.616;2023-05-07T08:45:41;3.13;;;2.93;;
18364;SDS011;9309;52.126;11.616;2023-05-07T08:48:14;3.83;;;3.53;;
18364;SDS011;9309;52.126;11.616;2023-05-07T08:50:46;3.50;;;3.30;;
18364;SDS011;9309;52.126;11.616;2023-05-07T08:53:13;4.77;;;3.40;;
18364;SDS011;9309;52.126;11.616;2023-05-07T08:55:41;3.53;;;3.10;;
18364;SDS011;9309;52.126;11.616;2023-05-07T08:58:08;3.10;;;2.90;;
18364;SDS011;9309;52.126;11.616;2023-05-07T09:00:37;3.07;;;2.83;;
18364;SDS011;9309;52.126;11.616;2023-05-07T09:03:08;3.07;;;2.90;;
18364;SDS011;9309;52.126;11.616;2023-05-07T09:05:38;3.30;;;3.07;;
18364;SDS011;9309;52.126;11.616;2023-05-07T09:08:07;3.63;;;3.43;;
18364;SDS011;9309;52.126;11.616;2023-05-07T09:10:35;2.37;;;2.27;;
18364;SDS011;9309;52.126;11.616;2023-05-07T09:13:03;4.07;;;3.53;;
18364;SDS011;9309;52.126;11.616;2023-05-07T09:15:30;2.97;;;2.87;;
18364;SDS011;9309;52.126;11.616;2023-05-07T09:18:00;3.20;;;3.03;;
18364;SDS011;9309;52.126;11.616;2023-05-07T09:20:30;2.63;;;2.03;;
18364;SDS011;9309;52.126;11.616;2023-05-07T09:22:57;3.77;;;3.53;;
18364;SDS011;9309;52.126;11.616;2023-05-07T09:25:29;3.67;;;3.30;;
18364;SDS011;9309;52.126;11.616;2023-05-07T09:27:58;3.57;;;3.27;;
18364;SDS011;9309;52.126;11.616;2023-05-07T09:30:27;6.03;;;2.93;;
18364;SDS011;9309;52.126;11.616;2023-05-07T09:32:54;3.00;;;2.80;;
18364;SDS011;9309;52.126;11.616;2023-05-07T09:35:23;4.33;;;3.40;;
18364;SDS011;9309;52.126;11.616;2023-05-07T09:37:57;4.03;;;3.63;;
18364;SDS011;9309;52.126;11.616;2023-05-07T09:40:29;3.23;;;3.03;;
18364;SDS011;9309;52.126;11.616;2023-05-07T09:43:08;7.30;;;2.93;;
18364;SDS011;9309;52.126;11.616;2023-05-07T09:45:37;3.50;;;3.03;;
18364;SDS011;9309;52.126;11.616;2023-05-07T09:48:05;3.63;;;2.93;;
18364;SDS011;9309;52.126;11.616;2023-05-07T09:50:35;3.47;;;3.27;;
18364;SDS011;9309;52.126;11.616;2023-05-07T09:53:04;5.33;;;3.10;;
18364;SDS011;9309;52.126;11.616;2023-05-07T09:55:32;3.47;;;3.13;;
18364;SDS011;9309;52.126;11.616;2023-05-07T09:57:59;2.80;;;2.70;;
18364;SDS011;9309;52.126;11.616;2023-05-07T10:00:28;5.13;;;3.10;;
18364;SDS011;9309;52.126;11.616;2023-05-07T10:03:03;4.13;;;3.30;;
18364;SDS011;9309;52.126;11.616;2023-05-07T10:05:41;3.23;;;2.93;;
18364;SDS011;9309;52.126;11.616;2023-05-07T10:08:09;3.10;;;2.87;;
18364;SDS011;9309;52.126;11.616;2023-05-07T10:10:39;3.13;;;2.77;;
18364;SDS011;9309;52.126;11.616;2023-05-07T10:13:09;3.53;;;3.33;;
18364;SDS011;9309;52.126;11.616;2023-05-07T10:15:39;3.27;;;2.30;;
18364;SDS011;9309;52.126;11.616;2023-05-07T10:18:06;2.77;;;2.57;;
18364;SDS011;9309;52.126;11.616;2023-05-07T10:20:35;1.93;;;1.83;;
18364;SDS011;9309;52.126;11.616;2023-05-07T10:23:06;2.23;;;2.10;;
18364;SDS011;9309;52.126;11.616;2023-05-07T10:25:42;4.10;;;3.23;;
18364;SDS011;9309;52.126;11.616;2023-05-07T10:28:16;2.87;;;2.73;;
18364;SDS011;9309;52.126;11.616;2023-05-07T10:30:49;3.47;;;3.20;;
18364;SDS011;9309;52.126;11.616;2023-05-07T10:33:33;3.57;;;3.27;;
18364;SDS011;9309;52.126;11.616;2023-05-07T10:36:02;4.40;;;3.33;;
18364;SDS011;9309;52.126;11.616;2023-05-07T10:38:34;3.43;;;3.20;;
18364;SDS011;9309;52.126;11.616;2023-05-07T10:41:01;4.03;;;3.20;;
18364;SDS011;9309;52.126;11.616;2023-05-07T10:43:38;3.57;;;3.30;;
18364;SDS011;9309;52.126;11.616;2023-05-07T10:46:10;3.70;;;3.40;;
18364;SDS011;9309;52.126;11.616;2023-05-07T10:51:39;4.07;;;3.07;;
18364;SDS011;9309;52.126;11.616;2023-05-07T10:54:22;3.20;;;3.00;;
18364;SDS011;9309;52.126;11.616;2023-05-07T10:57:09;3.00;;;2.77;;
18364;SDS011;9309;52.126;11.616;2023-05-07T11:00:04;3.67;;;3.20;;
18364;SDS011;9309;52.126;11.616;2023-05-07T11:03:22;2.60;;;2.17;;
18364;SDS011;9309;52.126;11.616;2023-05-07T11:08:52;3.73;;;3.40;;
18364;SDS011;9309;52.126;11.616;2023-05-07T11:14:43;2.70;;;2.60;;
18364;SDS011;9309;52.126;11.616;2023-05-07T11:17:15;2.90;;;2.70;;
18364;SDS011;9309;52.126;11.616;2023-05-07T11:19:48;3.80;;;2.67;;
18364;SDS011;9309;52.126;11.616;2023-05-07T11:25:17;3.23;;;3.13;;
18364;SDS011;9309;52.126;11.616;2023-05-07T11:27:47;2.73;;;2.57;;
18364;SDS011;9309;52.126;11.616;2023-05-07T11:30:16;3.03;;;2.77;;
18364;SDS011;9309;52.126;11.616;2023-05-07T11:32:46;3.43;;;2.97;;
18364;SDS011;9309;52.126;11.616;2023-05-07T11:35:15;3.00;;;2.73;;
18364;SDS011;9309;52.126;11.616;2023-05-07T11:37:45;3.33;;;3.10;;
18364;SDS011;9309;52.126;11.616;2023-05-07T11:40:13;3.13;;;2.93;;
18364;SDS011;9309;52.126;11.616;2023-05-07T11:42:40;2.83;;;2.73;;
18364;SDS011;9309;52.126;11.616;2023-05-07T11:45:09;2.40;;;2.20;;
18364;SDS011;9309;52.126;11.616;2023-05-07T11:47:36;2.83;;;2.70;;
18364;SDS011;9309;52.126;11.616;2023-05-07T11:50:05;3.90;;;2.80;;
18364;SDS011;9309;52.126;11.616;2023-05-07T11:52:33;2.57;;;2.47;;
18364;SDS011;9309;52.126;11.616;2023-05-07T11:55:01;3.67;;;3.17;;
18364;SDS011;9309;52.126;11.616;2023-05-07T11:57:28;3.40;;;2.60;;
18364;SDS011;9309;52.126;11.616;2023-05-07T11:59:55;3.17;;;2.87;;
18364;SDS011;9309;52.126;11.616;2023-05-07T12:02:25;2.10;;;2.00;;
18364;SDS011;9309;52.126;11.616;2023-05-07T12:04:53;2.70;;;2.60;;
18364;SDS011;9309;52.126;11.616;2023-05-07T12:07:21;3.23;;;3.00;;
18364;SDS011;9309;52.126;11.616;2023-05-07T12:09:49;3.43;;;3.20;;
18364;SDS011;9309;52.126;11.616;2023-05-07T12:12:16;2.80;;;2.60;;
18364;SDS011;9309;52.126;11.616;2023-05-07T12:14:44;2.53;;;2.43;;
18364;SDS011;9309;52.126;11.616;2023-05-07T12:17:12;3.00;;;2.80;;
18364;SDS011;9309;52.126;11.616;2023-05-07T12:19:42;2.50;;;2.30;;
18364;SDS011;9309;52.126;11.616;2023-05-07T12:22:09;2.33;;;2.23;;
18364;SDS011;9309;52.126;11.616;2023-05-07T12:24:43;2.93;;;2.50;;
18364;SDS011;9309;52.126;11.616;2023-05-07T12:27:11;2.20;;;2.10;;
18364;SDS011;9309;52.126;11.616;2023-05-07T12:29:38;3.10;;;2.80;;
18364;SDS011;9309;52.126;11.616;2023-05-07T12:32:12;2.77;;;2.57;;
18364;SDS011;9309;52.126;11.616;2023-05-07T12:34:39;3.03;;;2.83;;
18364;SDS011;9309;52.126;11.616;2023-05-07T12:37:07;2.63;;;2.53;;
18364;SDS011;9309;52.126;11.616;2023-05-07T12:39:35;2.20;;;2.10;;
18364;SDS011;9309;52.126;11.616;2023-05-07T12:42:02;2.70;;;2.50;;
18364;SDS011;9309;52.126;11.616;2023-05-07T12:44:29;2.80;;;2.70;;
18364;SDS011;9309;52.126;11.616;2023-05-07T12:46:58;2.60;;;2.50;;
18364;SDS011;9309;52.126;11.616;2023-05-07T12:49:27;1.97;;;1.97;;
18364;SDS011;9309;52.126;11.616;2023-05-07T12:51:55;2.10;;;2.00;;
18364;SDS011;9309;52.126;11.616;2023-05-07T12:54:28;2.60;;;2.50;;
18364;SDS011;9309;52.126;11.616;2023-05-07T12:57:02;2.83;;;2.73;;
18364;SDS011;9309;52.126;11.616;2023-05-07T12:59:31;2.00;;;1.97;;
18364;SDS011;9309;52.126;11.616;2023-05-07T13:01:58;2.57;;;2.47;;
18364;SDS011;9309;52.126;11.616;2023-05-07T13:04:25;2.70;;;2.60;;
18364;SDS011;9309;52.126;11.616;2023-05-07T13:06:51;2.20;;;2.10;;
18364;SDS011;9309;52.126;11.616;2023-05-07T13:09:20;2.83;;;2.73;;
18364;SDS011;9309;52.126;11.616;2023-05-07T13:11:47;2.60;;;2.50;;
18364;SDS011;9309;52.126;11.616;2023-05-07T13:14:13;2.93;;;2.70;;
18364;SDS011;9309;52.126;11.616;2023-05-07T13:16:40;2.10;;;2.10;;
18364;SDS011;9309;52.126;11.616;2023-05-07T13:19:07;4.47;;;3.10;;
18364;SDS011;9309;52.126;11.616;2023-05-07T13:21:34;2.37;;;1.93;;
18364;SDS011;9309;52.126;11.616;2023-05-07T13:24:01;2.73;;;2.53;;
18364;SDS011;9309;52.126;11.616;2023-05-07T13:26:29;3.00;;;2.50;;
18364;SDS011;9309;52.126;11.616;2023-05-07T13:28:57;3.00;;;2.80;;
18364;SDS011;9309;52.126;11.616;2023-05-07T13:31:24;2.73;;;2.63;;
18364;SDS011;9309;52.126;11.616;2023-05-07T13:33:51;2.97;;;2.70;;
18364;SDS011;9309;52.126;11.616;2023-05-07T13:36:18;2.33;;;2.23;;
18364;SDS011;9309;52.126;11.616;2023-05-07T13:38:44;2.43;;;2.33;;
18364;SDS011;9309;52.126;11.616;2023-05-07T13:41:11;2.80;;;2.47;;
18364;SDS011;9309;52.126;11.616;2023-05-07T13:43:40;3.60;;;3.30;;
18364;SDS011;9309;52.126;11.616;2023-05-07T13:46:07;3.27;;;2.70;;
18364;SDS011;9309;52.126;11.616;2023-05-07T13:48:34;2.87;;;2.47;;
18364;SDS011;9309;52.126;11.616;2023-05-07T13:51:00;2.90;;;2.70;;
18364;SDS011;9309;52.126;11.616;2023-05-07T13:53:27;2.70;;;2.50;;
18364;SDS011;9309;52.126;11.616;2023-05-07T13:55:54;2.30;;;2.20;;
18364;SDS011;9309;52.126;11.616;2023-05-07T13:58:21;2.40;;;2.30;;
18364;SDS011;9309;52.126;11.616;2023-05-07T14:00:49;2.47;;;2.33;;
18364;SDS011;9309;52.126;11.616;2023-05-07T14:03:16;2.33;;;2.13;;
18364;SDS011;9309;52.126;11.616;2023-05-07T14:05:44;2.57;;;2.47;;
18364;SDS011;9309;52.126;11.616;2023-05-07T14:08:11;3.57;;;2.30;;
18364;SDS011;9309;52.126;11.616;2023-05-07T14:10:38;2.17;;;2.10;;
18364;SDS011;9309;52.126;11.616;2023-05-07T14:13:05;2.60;;;2.50;;
18364;SDS011;9309;52.126;11.616;2023-05-07T14:15:32;2.10;;;2.00;;
18364;SDS011;9309;52.126;11.616;2023-05-07T14:18:00;2.40;;;2.20;;
18364;SDS011;9309;52.126;11.616;2023-05-07T14:20:28;2.30;;;2.20;;
18364;SDS011;9309;52.126;11.616;2023-05-07T14:22:55;2.20;;;2.10;;
18364;SDS011;9309;52.126;11.616;2023-05-07T14:25:22;2.47;;;2.37;;
18364;SDS011;9309;52.126;11.616;2023-05-07T14:27:50;2.03;;;1.93;;
18364;SDS011;9309;52.126;11.616;2023-05-07T14:30:17;1.93;;;1.83;;
18364;SDS011;9309;52.126;11.616;2023-05-07T14:32:44;2.30;;;2.20;;
18364;SDS011;9309;52.126;11.616;2023-05-07T14:35:12;1.93;;;1.83;;
18364;SDS011;9309;52.126;11.616;2023-05-07T14:37:39;1.80;;;1.73;;
18364;SDS011;9309;52.126;11.616;2023-05-07T14:40:06;2.20;;;2.10;;
18364;SDS011;9309;52.126;11.616;2023-05-07T14:42:33;2.30;;;2.20;;
18364;SDS011;9309;52.126;11.616;2023-05-07T14:45:00;2.50;;;2.40;;
18364;SDS011;9309;52.126;11.616;2023-05-07T14:47:27;2.63;;;2.47;;
18364;SDS011;9309;52.126;11.616;2023-05-07T14:49:54;3.27;;;3.07;;
18364;SDS011;9309;52.126;11.616;2023-05-07T14:52:23;2.23;;;2.13;;
18364;SDS011;9309;52.126;11.616;2023-05-07T14:54:51;1.97;;;1.87;;
18364;SDS011;9309;52.126;11.616;2023-05-07T14:57:17;2.40;;;2.30;;
18364;SDS011;9309;52.126;11.616;2023-05-07T14:59:44;2.00;;;1.90;;
18364;SDS011;9309;52.126;11.616;2023-05-07T15:02:12;2.23;;;2.13;;
18364;SDS011;9309;52.126;11.616;2023-05-07T15:04:39;2.13;;;2.03;;
18364;SDS011;9309;52.126;11.616;2023-05-07T15:07:10;2.27;;;2.17;;
18364;SDS011;9309;52.126;11.616;2023-05-07T15:09:41;1.97;;;1.87;;